sensor_id;sensor_type;location;lat;lon;timestamp;temperature;humidity
66422;DHT22;53228;51.380;0.098;2023-08-30T00:00:30;12.10;99.90
66422;DHT22;53228;51.380;0.098;2023-08-30T00:02:58;12.10;99.90
66422;DHT22;53228;51.380;0.098;2023-08-30T00:05:26;12.10;99.90
66422;DHT22;53228;51.380;0.098;2023-08-30T00:07:55;12.10;99.90
66422;DHT22;53228;51.380;0.098;2023-08-30T00:10:23;12.00;99.90
66422;DHT22;53228;51.380;0.098;2023-08-30T00:12:50;11.90;99.90
66422;DHT22;53228;51.380;0.098;2023-08-30T00:15:18;11.90;99.90
66422;DHT22;53228;51.380;0.098;2023-08-30T00:17:46;11.80;99.90
66422;DHT22;53228;51.380;0.098;2023-08-30T00:20:13;11.80;99.90
66422;DHT22;53228;51.380;0.098;2023-08-30T00:22:41;11.70;99.90
66422;DHT22;53228;51.380;0.098;2023-08-30T00:25:08;11.80;99.90
66422;DHT22;53228;51.380;0.098;2023-08-30T00:27:36;11.80;99.90
66422;DHT22;53228;51.380;0.098;2023-08-30T00:30:04;11.80;99.90
66422;DHT22;53228;51.380;0.098;2023-08-30T00:32:34;11.80;99.90
66422;DHT22;53228;51.380;0.098;2023-08-30T00:35:02;11.90;99.90
66422;DHT22;53228;51.380;0.098;2023-08-30T00:37:30;11.90;99.90
66422;DHT22;53228;51.380;0.098;2023-08-30T00:39:58;11.90;99.90
66422;DHT22;53228;51.380;0.098;2023-08-30T00:42:27;11.90;99.90
66422;DHT22;53228;51.380;0.098;2023-08-30T00:44:55;11.90;99.90
66422;DHT22;53228;51.380;0.098;2023-08-30T00:47:22;11.90;99.90
66422;DHT22;53228;51.380;0.098;2023-08-30T00:49:51;11.90;99.90
66422;DHT22;53228;51.380;0.098;2023-08-30T00:52:18;11.90;99.90
66422;DHT22;53228;51.380;0.098;2023-08-30T00:54:46;11.90;99.90
66422;DHT22;53228;51.380;0.098;2023-08-30T00:57:14;11.80;99.90
66422;DHT22;53228;51.380;0.098;2023-08-30T00:59:42;11.80;99.90
66422;DHT22;53228;51.380;0.098;2023-08-30T01:02:10;11.80;99.90
66422;DHT22;53228;51.380;0.098;2023-08-30T01:04:38;11.80;99.90
66422;DHT22;53228;51.380;0.098;2023-08-30T01:07:06;11.70;99.90
66422;DHT22;53228;51.380;0.098;2023-08-30T01:09:34;11.70;99.90
66422;DHT22;53228;51.380;0.098;2023-08-30T01:12:09;11.70;99.90
66422;DHT22;53228;51.380;0.098;2023-08-30T01:14:49;11.70;99.90
66422;DHT22;53228;51.380;0.098;2023-08-30T01:17:21;11.70;99.90
66422;DHT22;53228;51.380;0.098;2023-08-30T01:19:56;11.70;99.90
66422;DHT22;53228;51.380;0.098;2023-08-30T01:22:38;11.80;99.90
66422;DHT22;53228;51.380;0.098;2023-08-30T01:28:20;11.80;99.90
66422;DHT22;53228;51.380;0.098;2023-08-30T01:30:48;11.80;99.90
66422;DHT22;53228;51.380;0.098;2023-08-30T01:33:18;11.90;99.90
66422;DHT22;53228;51.380;0.098;2023-08-30T01:35:46;11.90;99.90
66422;DHT22;53228;51.380;0.098;2023-08-30T01:38:14;11.90;99.90
66422;DHT22;53228;51.380;0.098;2023-08-30T01:40:43;11.90;99.90
66422;DHT22;53228;51.380;0.098;2023-08-30T01:43:13;11.90;99.90
66422;DHT22;53228;51.380;0.098;2023-08-30T01:45:42;12.00;99.90
66422;DHT22;53228;51.380;0.098;2023-08-30T01:48:13;12.00;99.90
66422;DHT22;53228;51.380;0.098;2023-08-30T01:50:43;12.00;99.90
66422;DHT22;53228;51.380;0.098;2023-08-30T01:53:12;12.10;99.90
66422;DHT22;53228;51.380;0.098;2023-08-30T01:55:40;12.10;99.90
66422;DHT22;53228;51.380;0.098;2023-08-30T01:58:09;12.10;99.90
66422;DHT22;53228;51.380;0.098;2023-08-30T02:00:37;12.20;99.90
66422;DHT22;53228;51.380;0.098;2023-08-30T02:03:10;12.20;99.90
66422;DHT22;53228;51.380;0.098;2023-08-30T02:06:35;12.10;99.90
66422;DHT22;53228;51.380;0.098;2023-08-30T02:09:07;12.10;99.90
66422;DHT22;53228;51.380;0.098;2023-08-30T02:11:37;12.10;99.90
66422;DHT22;53228;51.380;0.098;2023-08-30T02:14:08;12.10;99.90
66422;DHT22;53228;51.380;0.098;2023-08-30T02:16:38;12.00;99.90
66422;DHT22;53228;51.380;0.098;2023-08-30T02:19:07;12.00;99.90
66422;DHT22;53228;51.380;0.098;2023-08-30T02:21:36;11.90;99.90
66422;DHT22;53228;51.380;0.098;2023-08-30T02:24:04;11.90;99.90
66422;DHT22;53228;51.380;0.098;2023-08-30T02:26:32;11.90;99.90
66422;DHT22;53228;51.380;0.098;2023-08-30T02:29:00;11.90;99.90
66422;DHT22;53228;51.380;0.098;2023-08-30T02:31:27;11.90;99.90
66422;DHT22;53228;51.380;0.098;2023-08-30T02:33:56;11.90;99.90
66422;DHT22;53228;51.380;0.098;2023-08-30T02:36:24;11.90;99.90
66422;DHT22;53228;51.380;0.098;2023-08-30T02:38:51;12.00;99.90
66422;DHT22;53228;51.380;0.098;2023-08-30T02:41:19;12.00;99.90
66422;DHT22;53228;51.380;0.098;2023-08-30T02:43:48;12.00;99.90
66422;DHT22;53228;51.380;0.098;2023-08-30T02:46:16;12.00;99.90
66422;DHT22;53228;51.380;0.098;2023-08-30T02:48:45;12.00;99.90
66422;DHT22;53228;51.380;0.098;2023-08-30T02:51:12;11.90;99.90
66422;DHT22;53228;51.380;0.098;2023-08-30T02:53:40;12.00;99.90
66422;DHT22;53228;51.380;0.098;2023-08-30T02:56:08;12.00;99.90
66422;DHT22;53228;51.380;0.098;2023-08-30T02:58:35;12.00;99.90
66422;DHT22;53228;51.380;0.098;2023-08-30T03:01:03;12.00;99.90
66422;DHT22;53228;51.380;0.098;2023-08-30T03:03:31;12.00;99.90
66422;DHT22;53228;51.380;0.098;2023-08-30T03:05:58;12.00;99.90
66422;DHT22;53228;51.380;0.098;2023-08-30T03:08:26;12.00;99.90
66422;DHT22;53228;51.380;0.098;2023-08-30T03:10:54;12.00;99.90
66422;DHT22;53228;51.380;0.098;2023-08-30T03:13:21;12.00;99.90
66422;DHT22;53228;51.380;0.098;2023-08-30T03:15:49;12.00;99.90
66422;DHT22;53228;51.380;0.098;2023-08-30T03:18:17;12.00;99.90
66422;DHT22;53228;51.380;0.098;2023-08-30T03:20:44;12.00;99.90
66422;DHT22;53228;51.380;0.098;2023-08-30T03:23:12;12.00;99.90
66422;DHT22;53228;51.380;0.098;2023-08-30T03:25:40;11.90;99.90
66422;DHT22;53228;51.380;0.098;2023-08-30T03:28:07;11.80;99.90
66422;DHT22;53228;51.380;0.098;2023-08-30T03:30:35;11.80;99.90
66422;DHT22;53228;51.380;0.098;2023-08-30T03:33:03;11.80;99.90
66422;DHT22;53228;51.380;0.098;2023-08-30T03:35:34;11.80;99.90
66422;DHT22;53228;51.380;0.098;2023-08-30T03:38:02;11.80;99.90
66422;DHT22;53228;51.380;0.098;2023-08-30T03:40:30;11.70;99.90
66422;DHT22;53228;51.380;0.098;2023-08-30T03:42:58;11.70;99.90
66422;DHT22;53228;51.380;0.098;2023-08-30T03:45:26;11.70;99.90
66422;DHT22;53228;51.380;0.098;2023-08-30T03:47:53;11.80;99.90
66422;DHT22;53228;51.380;0.098;2023-08-30T03:50:21;11.80;99.90
66422;DHT22;53228;51.380;0.098;2023-08-30T03:52:49;11.80;99.90
66422;DHT22;53228;51.380;0.098;2023-08-30T03:55:16;11.80;99.90
66422;DHT22;53228;51.380;0.098;2023-08-30T03:57:44;11.80;99.90
66422;DHT22;53228;51.380;0.098;2023-08-30T04:00:12;11.80;99.90
66422;DHT22;53228;51.380;0.098;2023-08-30T04:02:42;10.60;99.90
66422;DHT22;53228;51.380;0.098;2023-08-30T04:05:12;11.80;99.90
66422;DHT22;53228;51.380;0.098;2023-08-30T04:07:40;11.70;99.90
66422;DHT22;53228;51.380;0.098;2023-08-30T04:10:08;11.70;99.90
66422;DHT22;53228;51.380;0.098;2023-08-30T04:12:36;11.70;99.90
66422;DHT22;53228;51.380;0.098;2023-08-30T04:15:05;11.60;99.90
66422;DHT22;53228;51.380;0.098;2023-08-30T04:17:32;11.70;99.90
66422;DHT22;53228;51.380;0.098;2023-08-30T04:20:00;11.70;99.90
66422;DHT22;53228;51.380;0.098;2023-08-30T04:22:33;13.40;99.90
66422;DHT22;53228;51.380;0.098;2023-08-30T04:25:04;11.70;99.90
66422;DHT22;53228;51.380;0.098;2023-08-30T04:27:31;11.80;99.90
66422;DHT22;53228;51.380;0.098;2023-08-30T04:29:59;11.80;99.90
66422;DHT22;53228;51.380;0.098;2023-08-30T04:32:27;11.80;99.90
66422;DHT22;53228;51.380;0.098;2023-08-30T04:34:55;11.70;99.90
66422;DHT22;53228;51.380;0.098;2023-08-30T04:37:22;11.70;99.90
66422;DHT22;53228;51.380;0.098;2023-08-30T04:39:50;11.60;99.90
66422;DHT22;53228;51.380;0.098;2023-08-30T04:42:18;11.50;99.90
66422;DHT22;53228;51.380;0.098;2023-08-30T04:44:45;11.40;99.90
66422;DHT22;53228;51.380;0.098;2023-08-30T04:47:13;11.40;99.90
66422;DHT22;53228;51.380;0.098;2023-08-30T04:49:41;11.30;99.90
66422;DHT22;53228;51.380;0.098;2023-08-30T04:52:08;11.20;99.90
66422;DHT22;53228;51.380;0.098;2023-08-30T04:54:36;11.20;99.90
66422;DHT22;53228;51.380;0.098;2023-08-30T04:57:04;11.10;99.90
66422;DHT22;53228;51.380;0.098;2023-08-30T04:59:33;11.00;99.90
66422;DHT22;53228;51.380;0.098;2023-08-30T05:02:01;11.00;99.90
66422;DHT22;53228;51.380;0.098;2023-08-30T05:04:31;11.00;99.90
66422;DHT22;53228;51.380;0.098;2023-08-30T06:49:32;11.00;99.90
66422;DHT22;53228;51.380;0.098;2023-08-30T06:52:01;12.90;99.90
66422;DHT22;53228;51.380;0.098;2023-08-30T06:54:33;13.00;99.90
66422;DHT22;53228;51.380;0.098;2023-08-30T06:57:02;13.10;99.90
66422;DHT22;53228;51.380;0.098;2023-08-30T06:59:29;13.20;99.90
66422;DHT22;53228;51.380;0.098;2023-08-30T07:01:57;13.30;99.90
66422;DHT22;53228;51.380;0.098;2023-08-30T07:04:25;13.30;99.90
66422;DHT22;53228;51.380;0.098;2023-08-30T07:06:52;13.50;99.90
66422;DHT22;53228;51.380;0.098;2023-08-30T07:09:20;13.90;99.90
66422;DHT22;53228;51.380;0.098;2023-08-30T07:11:49;14.20;99.90
66422;DHT22;53228;51.380;0.098;2023-08-30T07:14:17;14.30;99.90
66422;DHT22;53228;51.380;0.098;2023-08-30T07:16:45;14.30;99.90
66422;DHT22;53228;51.380;0.098;2023-08-30T07:19:12;14.30;99.90
66422;DHT22;53228;51.380;0.098;2023-08-30T07:21:40;14.10;99.90
66422;DHT22;53228;51.380;0.098;2023-08-30T07:24:08;14.10;99.90
66422;DHT22;53228;51.380;0.098;2023-08-30T07:26:36;14.00;99.90
66422;DHT22;53228;51.380;0.098;2023-08-30T07:29:04;14.00;99.90
66422;DHT22;53228;51.380;0.098;2023-08-30T07:31:33;14.10;99.90
66422;DHT22;53228;51.380;0.098;2023-08-30T07:34:01;14.20;99.90
66422;DHT22;53228;51.380;0.098;2023-08-30T07:36:29;14.20;99.90
66422;DHT22;53228;51.380;0.098;2023-08-30T07:39:13;14.20;99.90
66422;DHT22;53228;51.380;0.098;2023-08-30T07:41:41;14.30;99.90
66422;DHT22;53228;51.380;0.098;2023-08-30T07:44:08;14.40;99.90
66422;DHT22;53228;51.380;0.098;2023-08-30T07:46:36;14.50;99.90
66422;DHT22;53228;51.380;0.098;2023-08-30T07:49:04;14.50;99.90
66422;DHT22;53228;51.380;0.098;2023-08-30T07:51:31;14.50;99.90
66422;DHT22;53228;51.380;0.098;2023-08-30T07:53:59;14.50;99.90
66422;DHT22;53228;51.380;0.098;2023-08-30T07:56:26;14.50;99.90
66422;DHT22;53228;51.380;0.098;2023-08-30T07:58:54;14.70;99.90
66422;DHT22;53228;51.380;0.098;2023-08-30T08:01:22;14.80;99.90
66422;DHT22;53228;51.380;0.098;2023-08-30T08:03:49;14.80;99.90
66422;DHT22;53228;51.380;0.098;2023-08-30T08:06:32;14.80;99.90
66422;DHT22;53228;51.380;0.098;2023-08-30T08:09:01;14.70;99.90
66422;DHT22;53228;51.380;0.098;2023-08-30T08:11:29;14.80;99.90
66422;DHT22;53228;51.380;0.098;2023-08-30T08:13:57;14.80;99.90
66422;DHT22;53228;51.380;0.098;2023-08-30T08:16:24;14.90;99.90
66422;DHT22;53228;51.380;0.098;2023-08-30T08:18:52;15.00;99.90
66422;DHT22;53228;51.380;0.098;2023-08-30T08:21:22;15.00;99.90
66422;DHT22;53228;51.380;0.098;2023-08-30T08:23:49;15.10;99.90
66422;DHT22;53228;51.380;0.098;2023-08-30T08:26:17;15.30;99.90
66422;DHT22;53228;51.380;0.098;2023-08-30T08:28:45;15.40;99.90
66422;DHT22;53228;51.380;0.098;2023-08-30T08:31:12;15.60;99.90
66422;DHT22;53228;51.380;0.098;2023-08-30T08:33:41;15.60;99.90
66422;DHT22;53228;51.380;0.098;2023-08-30T08:36:09;15.70;99.90
66422;DHT22;53228;51.380;0.098;2023-08-30T08:38:36;15.70;99.90
66422;DHT22;53228;51.380;0.098;2023-08-30T08:41:06;15.70;99.90
66422;DHT22;53228;51.380;0.098;2023-08-30T08:43:34;15.60;99.90
66422;DHT22;53228;51.380;0.098;2023-08-30T08:46:04;15.40;99.90
66422;DHT22;53228;51.380;0.098;2023-08-30T08:48:39;15.30;99.90
66422;DHT22;53228;51.380;0.098;2023-08-30T08:51:07;15.20;99.90
66422;DHT22;53228;51.380;0.098;2023-08-30T08:53:36;15.20;99.90
66422;DHT22;53228;51.380;0.098;2023-08-30T08:56:06;15.00;99.90
66422;DHT22;53228;51.380;0.098;2023-08-30T08:58:36;14.90;99.90
66422;DHT22;53228;51.380;0.098;2023-08-30T09:01:05;14.90;99.90
66422;DHT22;53228;51.380;0.098;2023-08-30T09:03:42;15.20;99.90
66422;DHT22;53228;51.380;0.098;2023-08-30T09:06:09;15.40;99.90
66422;DHT22;53228;51.380;0.098;2023-08-30T09:11:05;15.70;99.90
66422;DHT22;53228;51.380;0.098;2023-08-30T09:16:01;16.50;99.90
66422;DHT22;53228;51.380;0.098;2023-08-30T09:18:30;17.30;99.90
66422;DHT22;53228;51.380;0.098;2023-08-30T09:21:08;17.50;99.90
66422;DHT22;53228;51.380;0.098;2023-08-30T09:23:36;17.40;99.90
66422;DHT22;53228;51.380;0.098;2023-08-30T09:26:04;17.30;99.90
66422;DHT22;53228;51.380;0.098;2023-08-30T09:28:42;17.40;99.90
66422;DHT22;53228;51.380;0.098;2023-08-30T09:31:17;17.70;99.90
66422;DHT22;53228;51.380;0.098;2023-08-30T09:33:49;17.90;99.90
66422;DHT22;53228;51.380;0.098;2023-08-30T09:36:17;17.90;99.90
66422;DHT22;53228;51.380;0.098;2023-08-30T09:38:48;18.00;99.90
66422;DHT22;53228;51.380;0.098;2023-08-30T09:41:16;18.00;99.90
66422;DHT22;53228;51.380;0.098;2023-08-30T09:43:44;17.80;99.90
66422;DHT22;53228;51.380;0.098;2023-08-30T09:46:15;17.50;99.90
66422;DHT22;53228;51.380;0.098;2023-08-30T09:48:44;17.30;99.90
66422;DHT22;53228;51.380;0.098;2023-08-30T09:51:12;17.20;99.90
66422;DHT22;53228;51.380;0.098;2023-08-30T09:53:42;17.30;99.90
66422;DHT22;53228;51.380;0.098;2023-08-30T09:56:32;17.20;99.90
66422;DHT22;53228;51.380;0.098;2023-08-30T10:43:56;17.80;99.90
66422;DHT22;53228;51.380;0.098;2023-08-30T11:26:34;22.00;99.90
66422;DHT22;53228;51.380;0.098;2023-08-30T11:29:08;22.20;99.90
66422;DHT22;53228;51.380;0.098;2023-08-30T11:31:36;21.30;99.90
66422;DHT22;53228;51.380;0.098;2023-08-30T11:34:04;21.60;99.90
66422;DHT22;53228;51.380;0.098;2023-08-30T11:36:32;21.20;99.90
66422;DHT22;53228;51.380;0.098;2023-08-30T11:39:02;20.70;99.90
66422;DHT22;53228;51.380;0.098;2023-08-30T11:41:31;20.00;99.90
66422;DHT22;53228;51.380;0.098;2023-08-30T11:43:59;19.40;99.90
66422;DHT22;53228;51.380;0.098;2023-08-30T11:46:27;19.30;99.90
66422;DHT22;53228;51.380;0.098;2023-08-30T11:48:57;19.30;99.90
66422;DHT22;53228;51.380;0.098;2023-08-30T11:51:25;19.40;99.90
66422;DHT22;53228;51.380;0.098;2023-08-30T11:53:53;19.80;99.90
66422;DHT22;53228;51.380;0.098;2023-08-30T11:56:22;20.00;99.90
66422;DHT22;53228;51.380;0.098;2023-08-30T11:58:50;20.00;99.90
66422;DHT22;53228;51.380;0.098;2023-08-30T12:01:19;20.30;99.90
66422;DHT22;53228;51.380;0.098;2023-08-30T12:03:47;19.80;99.90
66422;DHT22;53228;51.380;0.098;2023-08-30T12:06:18;19.90;99.90
66422;DHT22;53228;51.380;0.098;2023-08-30T12:08:45;20.00;99.90
66422;DHT22;53228;51.380;0.098;2023-08-30T12:11:20;20.00;99.90
66422;DHT22;53228;51.380;0.098;2023-08-30T12:13:47;20.10;99.90
66422;DHT22;53228;51.380;0.098;2023-08-30T12:16:16;20.10;99.90
66422;DHT22;53228;51.380;0.098;2023-08-30T12:18:45;20.10;99.90
66422;DHT22;53228;51.380;0.098;2023-08-30T12:21:13;20.10;99.90
66422;DHT22;53228;51.380;0.098;2023-08-30T12:23:41;20.10;99.90
66422;DHT22;53228;51.380;0.098;2023-08-30T12:26:10;20.00;99.90
66422;DHT22;53228;51.380;0.098;2023-08-30T12:28:40;19.80;99.90
66422;DHT22;53228;51.380;0.098;2023-08-30T12:31:08;19.70;99.90
66422;DHT22;53228;51.380;0.098;2023-08-30T12:33:36;19.50;99.90
66422;DHT22;53228;51.380;0.098;2023-08-30T12:36:05;19.80;99.90
66422;DHT22;53228;51.380;0.098;2023-08-30T12:38:32;19.30;99.90
66422;DHT22;53228;51.380;0.098;2023-08-30T12:41:01;19.30;99.90
66422;DHT22;53228;51.380;0.098;2023-08-30T12:43:28;19.40;99.90
66422;DHT22;53228;51.380;0.098;2023-08-30T12:45:56;19.60;99.90
66422;DHT22;53228;51.380;0.098;2023-08-30T12:48:24;19.80;99.90
66422;DHT22;53228;51.380;0.098;2023-08-30T12:50:51;19.90;99.90
66422;DHT22;53228;51.380;0.098;2023-08-30T12:53:19;19.90;99.90
66422;DHT22;53228;51.380;0.098;2023-08-30T12:55:46;19.70;99.90
66422;DHT22;53228;51.380;0.098;2023-08-30T12:58:14;19.50;99.90
66422;DHT22;53228;51.380;0.098;2023-08-30T13:00:42;19.10;99.90
66422;DHT22;53228;51.380;0.098;2023-08-30T13:03:09;18.80;99.90
66422;DHT22;53228;51.380;0.098;2023-08-30T13:05:38;18.80;99.90
66422;DHT22;53228;51.380;0.098;2023-08-30T13:08:05;18.90;99.90
66422;DHT22;53228;51.380;0.098;2023-08-30T13:10:33;19.00;99.90
66422;DHT22;53228;51.380;0.098;2023-08-30T13:13:01;19.00;99.90
66422;DHT22;53228;51.380;0.098;2023-08-30T13:15:29;18.80;99.90
66422;DHT22;53228;51.380;0.098;2023-08-30T13:17:56;18.50;99.90
66422;DHT22;53228;51.380;0.098;2023-08-30T13:20:24;18.30;99.90
66422;DHT22;53228;51.380;0.098;2023-08-30T13:22:52;18.20;99.90
66422;DHT22;53228;51.380;0.098;2023-08-30T13:25:19;18.20;99.90
66422;DHT22;53228;51.380;0.098;2023-08-30T13:27:47;18.20;99.90
66422;DHT22;53228;51.380;0.098;2023-08-30T13:30:15;18.30;99.90
66422;DHT22;53228;51.380;0.098;2023-08-30T13:32:42;18.40;99.90
66422;DHT22;53228;51.380;0.098;2023-08-30T13:35:10;18.50;99.90
66422;DHT22;53228;51.380;0.098;2023-08-30T13:37:37;18.50;99.90
66422;DHT22;53228;51.380;0.098;2023-08-30T13:40:05;18.50;99.90
66422;DHT22;53228;51.380;0.098;2023-08-30T13:42:34;18.40;99.90
66422;DHT22;53228;51.380;0.098;2023-08-30T13:45:02;18.40;99.90
66422;DHT22;53228;51.380;0.098;2023-08-30T13:47:30;18.30;99.90
66422;DHT22;53228;51.380;0.098;2023-08-30T13:49:58;18.20;99.90
66422;DHT22;53228;51.380;0.098;2023-08-30T13:52:27;18.20;99.90
66422;DHT22;53228;51.380;0.098;2023-08-30T13:54:56;18.20;99.90
66422;DHT22;53228;51.380;0.098;2023-08-30T13:57:24;18.30;99.90
66422;DHT22;53228;51.380;0.098;2023-08-30T13:59:52;18.50;99.90
66422;DHT22;53228;51.380;0.098;2023-08-30T14:02:19;18.60;99.90
66422;DHT22;53228;51.380;0.098;2023-08-30T14:04:48;18.60;99.90
66422;DHT22;53228;51.380;0.098;2023-08-30T14:07:16;18.50;99.90
66422;DHT22;53228;51.380;0.098;2023-08-30T14:09:44;18.30;99.90
66422;DHT22;53228;51.380;0.098;2023-08-30T14:12:12;18.10;99.90
66422;DHT22;53228;51.380;0.098;2023-08-30T14:14:40;18.00;99.90
66422;DHT22;53228;51.380;0.098;2023-08-30T14:17:07;17.80;99.90
66422;DHT22;53228;51.380;0.098;2023-08-30T14:19:35;17.70;99.90
66422;DHT22;53228;51.380;0.098;2023-08-30T14:22:03;17.50;99.90
66422;DHT22;53228;51.380;0.098;2023-08-30T14:24:33;17.50;99.90
66422;DHT22;53228;51.380;0.098;2023-08-30T14:27:09;17.50;99.90
66422;DHT22;53228;51.380;0.098;2023-08-30T14:29:36;17.50;99.90
66422;DHT22;53228;51.380;0.098;2023-08-30T14:32:04;17.40;99.90
66422;DHT22;53228;51.380;0.098;2023-08-30T14:34:32;17.30;99.90
66422;DHT22;53228;51.380;0.098;2023-08-30T14:36:59;17.20;99.90
66422;DHT22;53228;51.380;0.098;2023-08-30T14:39:27;17.20;99.90
66422;DHT22;53228;51.380;0.098;2023-08-30T14:41:55;17.30;99.90
66422;DHT22;53228;51.380;0.098;2023-08-30T14:44:22;17.30;99.90
66422;DHT22;53228;51.380;0.098;2023-08-30T14:46:53;17.40;99.90
66422;DHT22;53228;51.380;0.098;2023-08-30T14:49:21;17.40;99.90
66422;DHT22;53228;51.380;0.098;2023-08-30T14:51:49;17.70;99.90
66422;DHT22;53228;51.380;0.098;2023-08-30T14:54:16;17.70;99.90
66422;DHT22;53228;51.380;0.098;2023-08-30T14:56:44;17.80;99.90
66422;DHT22;53228;51.380;0.098;2023-08-30T14:59:12;17.70;99.90
66422;DHT22;53228;51.380;0.098;2023-08-30T15:01:39;17.70;99.90
66422;DHT22;53228;51.380;0.098;2023-08-30T15:06:35;17.70;99.90
66422;DHT22;53228;51.380;0.098;2023-08-30T15:09:04;17.70;99.90
66422;DHT22;53228;51.380;0.098;2023-08-30T15:11:32;17.80;99.90
66422;DHT22;53228;51.380;0.098;2023-08-30T15:13:59;17.80;99.90
66422;DHT22;53228;51.380;0.098;2023-08-30T15:16:27;17.80;99.90
66422;DHT22;53228;51.380;0.098;2023-08-30T15:18:55;17.80;99.90
66422;DHT22;53228;51.380;0.098;2023-08-30T15:21:22;17.80;99.90
66422;DHT22;53228;51.380;0.098;2023-08-30T15:23:50;17.80;99.90
66422;DHT22;53228;51.380;0.098;2023-08-30T15:26:18;17.80;99.90
66422;DHT22;53228;51.380;0.098;2023-08-30T15:28:48;17.80;99.90
66422;DHT22;53228;51.380;0.098;2023-08-30T15:31:16;17.70;99.90
66422;DHT22;53228;51.380;0.098;2023-08-30T15:33:46;17.80;99.90
66422;DHT22;53228;51.380;0.098;2023-08-30T15:36:15;17.70;99.90
66422;DHT22;53228;51.380;0.098;2023-08-30T15:38:42;17.60;99.90
66422;DHT22;53228;51.380;0.098;2023-08-30T15:41:12;17.60;99.90
66422;DHT22;53228;51.380;0.098;2023-08-30T15:43:40;17.50;99.90
66422;DHT22;53228;51.380;0.098;2023-08-30T15:46:09;17.40;99.90
66422;DHT22;53228;51.380;0.098;2023-08-30T15:48:39;17.50;99.90
66422;DHT22;53228;51.380;0.098;2023-08-30T15:51:08;17.50;99.90
66422;DHT22;53228;51.380;0.098;2023-08-30T15:53:51;16.20;99.90
66422;DHT22;53228;51.380;0.098;2023-08-30T15:56:20;17.50;99.90
66422;DHT22;53228;51.380;0.098;2023-08-30T15:58:48;17.60;99.90
66422;DHT22;53228;51.380;0.098;2023-08-30T16:01:15;17.70;99.90
66422;DHT22;53228;51.380;0.098;2023-08-30T16:03:45;17.70;99.90
66422;DHT22;53228;51.380;0.098;2023-08-30T16:06:12;17.70;99.90
66422;DHT22;53228;51.380;0.098;2023-08-30T16:08:40;17.80;99.90
66422;DHT22;53228;51.380;0.098;2023-08-30T16:11:08;17.60;99.90
66422;DHT22;53228;51.380;0.098;2023-08-30T16:13:35;17.60;99.90
66422;DHT22;53228;51.380;0.098;2023-08-30T16:16:03;17.50;99.90
66422;DHT22;53228;51.380;0.098;2023-08-30T16:18:31;17.50;99.90
66422;DHT22;53228;51.380;0.098;2023-08-30T16:20:59;17.40;99.90
66422;DHT22;53228;51.380;0.098;2023-08-30T16:23:27;17.50;99.90
66422;DHT22;53228;51.380;0.098;2023-08-30T16:25:58;17.40;99.90
66422;DHT22;53228;51.380;0.098;2023-08-30T16:28:26;17.30;99.90
66422;DHT22;53228;51.380;0.098;2023-08-30T16:30:58;17.30;99.90
66422;DHT22;53228;51.380;0.098;2023-08-30T16:33:29;17.30;99.90
66422;DHT22;53228;51.380;0.098;2023-08-30T16:35:59;17.30;99.90
66422;DHT22;53228;51.380;0.098;2023-08-30T16:38:27;17.20;99.90
66422;DHT22;53228;51.380;0.098;2023-08-30T16:40:55;17.20;99.90
66422;DHT22;53228;51.380;0.098;2023-08-30T16:43:30;17.10;99.90
66422;DHT22;53228;51.380;0.098;2023-08-30T16:45:58;17.00;99.90
66422;DHT22;53228;51.380;0.098;2023-08-30T16:48:26;17.00;99.90
66422;DHT22;53228;51.380;0.098;2023-08-30T16:50:54;16.90;99.90
66422;DHT22;53228;51.380;0.098;2023-08-30T16:53:22;16.90;99.90
66422;DHT22;53228;51.380;0.098;2023-08-30T16:55:49;16.90;99.90
66422;DHT22;53228;51.380;0.098;2023-08-30T16:58:17;16.80;99.90
66422;DHT22;53228;51.380;0.098;2023-08-30T17:00:45;16.90;99.90
66422;DHT22;53228;51.380;0.098;2023-08-30T17:03:12;16.80;99.90
66422;DHT22;53228;51.380;0.098;2023-08-30T17:05:41;16.90;99.90
66422;DHT22;53228;51.380;0.098;2023-08-30T17:08:09;16.80;99.90
66422;DHT22;53228;51.380;0.098;2023-08-30T17:10:37;16.70;99.90
66422;DHT22;53228;51.380;0.098;2023-08-30T17:13:05;16.80;99.90
66422;DHT22;53228;51.380;0.098;2023-08-30T17:15:32;16.80;99.90
66422;DHT22;53228;51.380;0.098;2023-08-30T17:18:00;16.80;99.90
66422;DHT22;53228;51.380;0.098;2023-08-30T17:20:28;16.90;99.90
66422;DHT22;53228;51.380;0.098;2023-08-30T17:22:56;16.80;99.90
66422;DHT22;53228;51.380;0.098;2023-08-30T17:25:23;16.80;99.90
66422;DHT22;53228;51.380;0.098;2023-08-30T17:27:51;16.70;99.90
66422;DHT22;53228;51.380;0.098;2023-08-30T17:30:19;16.60;99.90
66422;DHT22;53228;51.380;0.098;2023-08-30T17:32:47;16.40;99.90
66422;DHT22;53228;51.380;0.098;2023-08-30T17:35:15;16.30;99.90
66422;DHT22;53228;51.380;0.098;2023-08-30T17:37:43;16.30;99.90
66422;DHT22;53228;51.380;0.098;2023-08-30T17:40:11;16.20;99.90
66422;DHT22;53228;51.380;0.098;2023-08-30T17:42:39;16.20;99.90
66422;DHT22;53228;51.380;0.098;2023-08-30T17:45:19;16.10;99.90
66422;DHT22;53228;51.380;0.098;2023-08-30T17:47:47;16.00;99.90
66422;DHT22;53228;51.380;0.098;2023-08-30T17:50:16;16.00;99.90
66422;DHT22;53228;51.380;0.098;2023-08-30T17:52:43;15.90;99.90
66422;DHT22;53228;51.380;0.098;2023-08-30T17:55:11;15.80;99.90
66422;DHT22;53228;51.380;0.098;2023-08-30T17:57:42;15.80;99.90
66422;DHT22;53228;51.380;0.098;2023-08-30T18:00:11;15.70;99.90
66422;DHT22;53228;51.380;0.098;2023-08-30T18:02:44;15.60;99.90
66422;DHT22;53228;51.380;0.098;2023-08-30T18:05:12;15.60;99.90
66422;DHT22;53228;51.380;0.098;2023-08-30T18:07:40;15.50;99.90
66422;DHT22;53228;51.380;0.098;2023-08-30T18:10:08;15.40;99.90
66422;DHT22;53228;51.380;0.098;2023-08-30T18:12:35;15.30;99.90
66422;DHT22;53228;51.380;0.098;2023-08-30T18:15:03;15.20;99.90
66422;DHT22;53228;51.380;0.098;2023-08-30T18:17:31;15.20;99.90
66422;DHT22;53228;51.380;0.098;2023-08-30T18:19:59;15.40;99.90
66422;DHT22;53228;51.380;0.098;2023-08-30T18:22:27;15.00;99.90
66422;DHT22;53228;51.380;0.098;2023-08-30T18:24:55;14.90;99.90
66422;DHT22;53228;51.380;0.098;2023-08-30T18:27:23;14.80;99.90
66422;DHT22;53228;51.380;0.098;2023-08-30T18:29:50;14.80;99.90
66422;DHT22;53228;51.380;0.098;2023-08-30T18:32:18;14.80;99.90
66422;DHT22;53228;51.380;0.098;2023-08-30T18:34:46;14.60;99.90
66422;DHT22;53228;51.380;0.098;2023-08-30T18:37:14;14.60;99.90
66422;DHT22;53228;51.380;0.098;2023-08-30T18:39:42;14.50;99.90
66422;DHT22;53228;51.380;0.098;2023-08-30T18:42:09;14.50;99.90
66422;DHT22;53228;51.380;0.098;2023-08-30T18:47:06;14.30;99.90
66422;DHT22;53228;51.380;0.098;2023-08-30T18:49:34;14.30;99.90
66422;DHT22;53228;51.380;0.098;2023-08-30T18:52:02;14.30;99.90
66422;DHT22;53228;51.380;0.098;2023-08-30T18:54:30;14.20;99.90
66422;DHT22;53228;51.380;0.098;2023-08-30T18:56:58;14.20;99.90
66422;DHT22;53228;51.380;0.098;2023-08-30T18:59:28;14.20;99.90